createdAt,value
2018-04-18T00:00:36.403Z,61.15
2018-04-18T00:01:36.423Z,61.24
2018-04-18T00:02:36.450Z,60.96
2018-04-18T00:03:36.468Z,61.15
2018-04-18T00:04:36.493Z,61.34
2018-04-18T00:05:36.258Z,60.96
2018-04-18T00:06:36.533Z,60.57
2018-04-18T00:07:36.560Z,61.05
2018-04-18T00:08:36.325Z,61.15
2018-04-18T00:09:36.597Z,61.34
2018-04-18T00:10:36.370Z,61.43
2018-04-18T00:11:36.644Z,60.86
2018-04-18T00:12:36.675Z,60.57
2018-04-18T00:13:36.739Z,60.57
2018-04-18T00:14:36.709Z,60.86
2018-04-18T00:15:36.734Z,61.4
2018-04-18T00:16:36.756Z,61.24
2018-04-18T00:17:36.779Z,61.98
2018-04-18T00:18:36.797Z,61.98
2018-04-18T00:19:36.822Z,61.88
2018-04-18T00:20:36.844Z,62.17
2018-04-18T00:21:36.866Z,62.07
2018-04-18T00:22:36.894Z,61.53
2018-04-18T00:23:36.656Z,61.98
2018-04-18T00:24:36.930Z,62.07
2018-04-18T00:25:36.962Z,61.5
2018-04-18T00:26:36.973Z,62.17
2018-04-18T00:27:36.989Z,62.07
2018-04-18T00:28:37.067Z,62.07
2018-04-18T00:29:37.034Z,61.6
2018-04-18T00:30:37.063Z,61.69
2018-04-18T00:31:37.086Z,61.4
2018-04-18T00:32:37.097Z,61.69
2018-04-18T00:33:37.178Z,61.88
2018-04-18T00:34:37.149Z,62.17
2018-04-18T00:35:37.174Z,62.17
2018-04-18T00:36:37.192Z,62.07
2018-04-18T00:37:37.224Z,62.55
2018-04-18T00:38:37.243Z,62.84
2018-04-18T00:39:37.264Z,63.32
2018-04-18T00:40:37.030Z,62.84
2018-04-18T00:41:37.304Z,63.22
2018-04-18T00:42:37.330Z,62.84
2018-04-18T00:43:37.344Z,62.93
2018-04-18T00:44:37.369Z,63.22
2018-04-18T00:45:37.396Z,62.55
2018-04-18T00:46:37.418Z,62.84
2018-04-18T00:47:37.431Z,62.65
2018-04-18T00:48:37.510Z,62.55
2018-04-18T00:49:37.475Z,63.32
2018-04-18T00:50:37.505Z,63.29
2018-04-18T00:51:37.519Z,63.32
2018-04-18T00:52:37.540Z,63.03
2018-04-18T00:53:37.663Z,63.76
2018-04-18T00:54:37.583Z,63.86
2018-04-18T00:55:37.606Z,64.53
2018-04-18T00:56:37.633Z,64.34
2018-04-18T00:57:37.650Z,64.05
2018-04-18T00:58:37.674Z,63.96
2018-04-18T00:59:37.695Z,63.96
2018-04-18T01:00:37.714Z,64.34
2018-04-18T01:01:37.483Z,65.01
2018-04-18T01:02:37.857Z,65.39
2018-04-18T01:03:37.791Z,65.3
2018-04-18T01:04:37.842Z,64.34
2018-04-18T01:05:37.826Z,65.11
2018-04-18T01:06:37.842Z,64.82
2018-04-18T01:07:38.034Z,64.82
2018-04-18T01:08:37.888Z,65.39
2018-04-18T01:09:37.907Z,65.45
2018-04-18T01:10:37.931Z,65.55
2018-04-18T01:11:37.951Z,65.55
2018-04-18T01:12:37.972Z,65.55
2018-04-18T01:13:37.994Z,65.11
2018-04-18T01:14:38.018Z,65.3
2018-04-18T01:15:38.040Z,64.43
2018-04-18T01:16:38.067Z,64.82
2018-04-18T01:17:38.080Z,64.82
2018-04-18T01:18:38.106Z,64.53
2018-04-18T01:19:38.126Z,64.63
2018-04-18T01:20:37.886Z,64.82
2018-04-18T01:21:38.164Z,64.72
2018-04-18T01:22:38.077Z,64.72
2018-04-18T01:23:38.205Z,64.53
2018-04-18T01:24:38.221Z,65.39
2018-04-18T01:25:38.252Z,64.72
2018-04-18T01:26:38.032Z,64.82
2018-04-18T01:27:38.043Z,65.17
2018-04-18T01:28:38.322Z,64.72
2018-04-18T01:29:38.083Z,64.72
2018-04-18T01:30:38.357Z,65.26
2018-04-18T01:31:38.379Z,65.55
2018-04-18T01:32:38.403Z,65.45
2018-04-18T01:33:38.433Z,65.65
2018-04-18T01:34:38.445Z,66.41
2018-04-18T01:35:38.468Z,66.03
2018-04-18T01:36:38.487Z,65.84
2018-04-18T01:37:38.307Z,65.94
2018-04-18T01:38:38.532Z,65.94
2018-04-18T01:39:38.296Z,66.61
2018-04-18T01:40:38.582Z,66.03
2018-04-18T01:41:38.594Z,65.94
2018-04-18T01:42:38.617Z,65.74
2018-04-18T01:43:38.635Z,66.13
2018-04-18T01:44:38.667Z,66.41
2018-04-18T01:45:38.684Z,66.13
2018-04-18T01:46:38.699Z,66.13
2018-04-18T01:47:38.820Z,66.03
2018-04-18T01:48:38.743Z,65.45
2018-04-18T01:49:38.787Z,65.55
2018-04-18T01:50:38.794Z,65.94
2018-04-18T01:51:38.811Z,66.13
2018-04-18T01:52:38.887Z,65.55
2018-04-18T01:53:38.849Z,65.84
2018-04-18T01:54:38.882Z,66.51
2018-04-18T01:55:38.895Z,65.84
2018-04-18T01:56:38.920Z,66.13
2018-04-18T01:57:38.938Z,66.51
2018-04-18T01:58:38.958Z,65.94
2018-04-18T01:59:38.984Z,65.55
2018-04-18T02:00:39.015Z,65.94
2018-04-18T02:01:39.020Z,65.74
2018-04-18T02:02:39.058Z,65.74
2018-04-18T02:03:38.813Z,65.94
2018-04-18T02:04:39.085Z,65.55
2018-04-18T02:05:39.105Z,65.94
2018-04-18T02:06:39.131Z,65.84
2018-04-18T02:07:39.167Z,65.74
2018-04-18T02:08:39.319Z,65.74
2018-04-18T02:09:39.194Z,66.22
2018-04-18T02:10:39.221Z,66.13
2018-04-18T02:11:39.232Z,66.03
2018-04-18T02:12:39.251Z,66.28
2018-04-18T02:13:39.274Z,66.86
2018-04-18T02:14:39.292Z,68.2
2018-04-18T02:15:39.312Z,67.43
2018-04-18T02:16:39.342Z,67.24
2018-04-18T02:17:39.363Z,67.72
2018-04-18T02:18:39.403Z,67.34
2018-04-18T02:19:39.403Z,67.82
2018-04-18T02:20:39.425Z,67.34
2018-04-18T02:21:39.193Z,67.34
2018-04-18T02:22:39.467Z,67.08
2018-04-18T02:23:39.285Z,67.34
2018-04-18T02:24:39.508Z,67.91
2018-04-18T02:25:39.529Z,68.01
2018-04-18T02:26:39.551Z,68.01
2018-04-18T02:27:39.318Z,67.53
2018-04-18T02:28:39.593Z,67.91
2018-04-18T02:29:39.615Z,67.34
2018-04-18T02:30:39.635Z,67.91
2018-04-18T02:31:39.663Z,68.01
2018-04-18T02:32:39.681Z,68.01
2018-04-18T02:33:39.698Z,67.53
2018-04-18T02:34:39.725Z,67.14
2018-04-18T02:35:39.744Z,67.34
2018-04-18T02:36:39.762Z,67.14
2018-04-18T02:37:39.531Z,67.24
2018-04-18T02:38:39.858Z,67.53
2018-04-18T02:39:39.826Z,67.53
2018-04-18T02:40:39.847Z,67.43
2018-04-18T02:41:39.869Z,68.2
2018-04-18T02:42:39.887Z,67.24
2018-04-18T02:43:39.663Z,67.63
2018-04-18T02:44:39.676Z,67.34
2018-04-18T02:45:39.953Z,67.24
2018-04-18T02:46:39.974Z,67.34
2018-04-18T02:47:39.996Z,67.53
2018-04-18T02:48:40.019Z,67.72
2018-04-18T02:49:40.023Z,67.53
2018-04-18T02:50:40.066Z,67.34
2018-04-18T02:51:40.068Z,68.01
2018-04-18T02:52:40.088Z,68.2
2018-04-18T02:53:40.166Z,68.68
2018-04-18T02:54:40.131Z,68.2
2018-04-18T02:55:40.153Z,68.01
2018-04-18T02:56:40.168Z,68.77
2018-04-18T02:57:40.213Z,68.77
2018-04-18T02:58:40.213Z,68.49
2018-04-18T02:59:39.981Z,68.77
2018-04-18T03:00:40.268Z,68.58
2018-04-18T03:01:40.292Z,68.77
2018-04-18T03:02:40.303Z,68.49
2018-04-18T03:03:40.323Z,68.49
2018-04-18T03:04:40.351Z,68.49
2018-04-18T03:05:40.365Z,68.1
2018-04-18T03:06:40.386Z,68.1
2018-04-18T03:07:40.160Z,68.77
2018-04-18T03:08:40.480Z,68.77
2018-04-18T03:09:40.459Z,68.2
2018-04-18T03:10:40.219Z,68.39
2018-04-18T03:11:40.495Z,68.87
2018-04-18T03:12:40.520Z,68.68
2018-04-18T03:13:40.532Z,68.01
2018-04-18T03:14:40.554Z,68.01
2018-04-18T03:15:40.576Z,68.87
2018-04-18T03:16:40.597Z,68.07
2018-04-18T03:17:40.614Z,68.39
2018-04-18T03:18:40.738Z,68.87
2018-04-18T03:19:40.657Z,68.39
2018-04-18T03:20:40.430Z,68.74
2018-04-18T03:21:40.698Z,69.12
2018-04-18T03:22:40.720Z,68.93
2018-04-18T03:23:40.995Z,68.93
2018-04-18T03:24:40.763Z,69.31
2018-04-18T03:25:40.783Z,69.12
2018-04-18T03:26:40.871Z,69.5
2018-04-18T03:27:40.569Z,69.06
2018-04-18T03:28:40.866Z,69.25
2018-04-18T03:29:40.866Z,69.21
2018-04-18T03:30:40.889Z,69.31
2018-04-18T03:31:40.904Z,69.41
2018-04-18T03:32:40.671Z,69.31
2018-04-18T03:33:40.948Z,69.15
2018-04-18T03:34:40.966Z,68.1
2018-04-18T03:35:40.984Z,68.55
2018-04-18T03:36:41.005Z,68.93
2018-04-18T03:37:41.033Z,68.35
2018-04-18T03:38:41.096Z,69.02
2018-04-18T03:39:41.067Z,69.41
2018-04-18T03:40:41.088Z,69.02
2018-04-18T03:41:41.107Z,69.41
2018-04-18T03:42:40.874Z,69.5
2018-04-18T03:43:41.243Z,69.79
2018-04-18T03:44:41.164Z,69.7
2018-04-18T03:45:41.186Z,69.31
2018-04-18T03:46:41.205Z,70.07
2018-04-18T03:47:41.239Z,69.89
2018-04-18T03:48:41.095Z,69.98
2018-04-18T03:49:41.267Z,69.79
2018-04-18T03:50:41.288Z,69.98
2018-04-18T03:51:41.316Z,69.6
2018-04-18T03:52:41.342Z,69.7
2018-04-18T03:53:41.403Z,70.07
2018-04-18T03:54:41.371Z,69.89
2018-04-18T03:55:41.393Z,69.89
2018-04-18T03:56:41.413Z,69.5
2018-04-18T03:57:41.434Z,69.5
2018-04-18T03:58:41.458Z,68.84
2018-04-18T03:59:41.479Z,69.31
2018-04-18T04:00:41.496Z,69.41
2018-04-18T04:01:41.520Z,69.41
2018-04-18T04:02:41.541Z,69.6
2018-04-18T04:03:41.558Z,69.98
2018-04-18T04:04:41.328Z,70.07
2018-04-18T04:05:41.599Z,69.89
2018-04-18T04:06:41.642Z,70.27
2018-04-18T04:07:41.640Z,69.6
2018-04-18T04:08:41.709Z,69.6
2018-04-18T04:09:41.689Z,69.41
2018-04-18T04:10:41.702Z,69.79
2018-04-18T04:11:41.722Z,69.31
2018-04-18T04:12:41.750Z,69.5
2018-04-18T04:13:41.766Z,69.21
2018-04-18T04:14:41.782Z,69.12
2018-04-18T04:15:41.804Z,69.31
2018-04-18T04:16:41.570Z,69.41
2018-04-18T04:17:41.845Z,69.7
2018-04-18T04:18:41.863Z,70.17
2018-04-18T04:19:41.632Z,70.27
2018-04-18T04:20:41.653Z,70.56
2018-04-18T04:21:41.927Z,70.71
2018-04-18T04:22:41.945Z,70.9
2018-04-18T04:23:42.018Z,71.19
2018-04-18T04:24:41.734Z,71.19
2018-04-18T04:25:42.008Z,71.19
2018-04-18T04:26:42.027Z,71.09
2018-04-18T04:27:41.795Z,71.09
2018-04-18T04:28:42.069Z,71.09
2018-04-18T04:29:42.085Z,71.19
2018-04-18T04:30:42.114Z,71.09
2018-04-18T04:31:42.127Z,71.28
2018-04-18T04:32:42.148Z,71
2018-04-18T04:33:42.169Z,70.61
2018-04-18T04:34:42.188Z,70.81
2018-04-18T04:35:42.212Z,71.19
2018-04-18T04:36:42.237Z,71.38
2018-04-18T04:37:42.291Z,71
2018-04-18T04:38:42.324Z,71.28
2018-04-18T04:39:42.039Z,71.09
2018-04-18T04:40:42.312Z,70.9
2018-04-18T04:41:42.079Z,70.9
2018-04-18T04:42:42.356Z,71
2018-04-18T04:43:42.373Z,71.09
2018-04-18T04:44:42.395Z,71.28
2018-04-18T04:45:42.416Z,71.57
2018-04-18T04:46:42.432Z,72.05
2018-04-18T04:47:42.450Z,71.67
2018-04-18T04:48:42.522Z,71.86
2018-04-18T04:49:42.496Z,71.89
2018-04-18T04:50:42.514Z,71.99
2018-04-18T04:51:42.543Z,71.99
2018-04-18T04:52:42.554Z,71.8
2018-04-18T04:53:42.655Z,71.99
2018-04-18T04:54:42.602Z,71.8
2018-04-18T04:55:42.625Z,71.8
2018-04-18T04:56:42.633Z,72.08
2018-04-18T04:57:42.654Z,71.8
2018-04-18T04:58:42.677Z,71.8
2018-04-18T04:59:42.459Z,71.8
2018-04-18T05:00:42.729Z,71.7
2018-04-18T05:01:42.745Z,71.61
2018-04-18T05:02:42.506Z,72.18
2018-04-18T05:03:42.525Z,72.18
2018-04-18T05:04:42.795Z,71.42
2018-04-18T05:05:42.817Z,71.51
2018-04-18T05:06:42.849Z,71.89
2018-04-18T05:07:42.604Z,71.7
2018-04-18T05:08:42.931Z,71.8
2018-04-18T05:09:42.901Z,71.7
2018-04-18T05:10:42.666Z,71.8
2018-04-18T05:11:42.941Z,71.7
2018-04-18T05:12:42.960Z,72.18
2018-04-18T05:13:42.728Z,71.13
2018-04-18T05:14:43.006Z,71.13
2018-04-18T05:15:43.022Z,71.13
2018-04-18T05:16:43.049Z,71.32
2018-04-18T05:17:43.061Z,71.13
2018-04-18T05:18:43.082Z,71.13
2018-04-18T05:19:43.103Z,71.22
2018-04-18T05:20:43.125Z,71.26
2018-04-18T05:21:42.890Z,70.87
2018-04-18T05:22:42.910Z,70.65
2018-04-18T05:23:43.236Z,70.78
2018-04-18T05:24:43.211Z,70.56
2018-04-18T05:25:42.972Z,70.97
2018-04-18T05:26:43.234Z,70.5
2018-04-18T05:27:43.255Z,70.68
2018-04-18T05:28:43.329Z,70.97
2018-04-18T05:29:43.310Z,70.65
2018-04-18T05:30:43.331Z,70.97
2018-04-18T05:31:43.355Z,70.97
2018-04-18T05:32:43.383Z,70.59
2018-04-18T05:33:43.393Z,70.59
2018-04-18T05:34:43.413Z,70.59
2018-04-18T05:35:43.436Z,70.4
2018-04-18T05:36:43.455Z,70.21
2018-04-18T05:37:43.496Z,69.64
2018-04-18T05:38:43.498Z,70.01
2018-04-18T05:39:43.518Z,70.21
2018-04-18T05:40:43.539Z,69.64
2018-04-18T05:41:43.555Z,70.01
2018-04-18T05:42:43.569Z,69.64
2018-04-18T05:43:43.641Z,69.73
2018-04-18T05:44:43.619Z,68.71
2018-04-18T05:45:43.634Z,68.71
2018-04-18T05:46:43.663Z,68.52
2018-04-18T05:47:43.683Z,68.62
2018-04-18T05:48:43.747Z,68.52
2018-04-18T05:49:43.729Z,68.62
2018-04-18T05:50:43.746Z,67.66
2018-04-18T05:51:43.765Z,67.56
2018-04-18T05:52:43.792Z,67.94
2018-04-18T05:53:43.573Z,67.56
2018-04-18T05:54:43.836Z,66.89
2018-04-18T05:55:43.854Z,65.74
2018-04-18T05:56:43.626Z,65.74
2018-04-18T05:57:43.708Z,65.74
2018-04-18T05:58:44.068Z,66.32
2018-04-18T05:59:43.943Z,65.49
2018-04-18T06:00:43.963Z,65.88
2018-04-18T06:01:43.982Z,65.11
2018-04-18T06:02:44.003Z,64.72
2018-04-18T06:03:44.027Z,64.63
2018-04-18T06:04:44.089Z,64.34
2018-04-18T06:05:44.074Z,64.72
2018-04-18T06:06:43.835Z,64.63
2018-04-18T06:07:44.119Z,63.86
2018-04-18T06:08:44.142Z,64.25
2018-04-18T06:09:44.156Z,63.99
2018-04-18T06:10:44.179Z,63.6
2018-04-18T06:11:44.198Z,63.51
2018-04-18T06:12:43.969Z,63.22
2018-04-18T06:13:43.988Z,62.74
2018-04-18T06:14:44.260Z,62.26
2018-04-18T06:15:44.282Z,62.46
2018-04-18T06:16:44.306Z,61.69
2018-04-18T06:17:44.376Z,62.17
2018-04-18T06:18:44.350Z,62.26
2018-04-18T06:19:44.369Z,60.54
2018-04-18T06:20:44.394Z,61.34
2018-04-18T06:21:44.415Z,60.96
2018-04-18T06:22:44.542Z,60.09
2018-04-18T06:23:44.524Z,59.42
2018-04-18T06:24:44.231Z,58.94
2018-04-18T06:25:44.253Z,58.94
2018-04-18T06:26:44.533Z,59.13
2018-04-18T06:27:44.296Z,58.27
2018-04-18T06:28:44.574Z,57.98
2018-04-18T06:29:44.595Z,58.37
2018-04-18T06:30:44.366Z,58.27
2018-04-18T06:31:44.642Z,58.37
2018-04-18T06:32:44.718Z,58.11
2018-04-18T06:33:44.746Z,58.01
2018-04-18T06:34:44.702Z,56.67
2018-04-18T06:35:44.727Z,56.38
2018-04-18T06:36:44.501Z,56.48
2018-04-18T06:37:44.867Z,56.86
2018-04-18T06:38:44.805Z,55.9
2018-04-18T06:39:44.811Z,55.9
2018-04-18T06:40:44.835Z,56.19
2018-04-18T06:41:44.881Z,55.8
2018-04-18T06:42:44.881Z,55.52
2018-04-18T06:43:44.905Z,55.04
2018-04-18T06:44:44.922Z,55.71
2018-04-18T06:45:44.950Z,55.42
2018-04-18T06:46:44.970Z,55.26
2018-04-18T06:47:45.042Z,54.68
2018-04-18T06:48:45.017Z,54.11
2018-04-18T06:49:45.044Z,54.39
2018-04-18T06:50:44.812Z,53.82
2018-04-18T06:51:45.088Z,52.76
2018-04-18T06:52:45.111Z,52
2018-04-18T06:53:45.138Z,51.9
2018-04-18T06:54:45.160Z,52.19
2018-04-18T06:55:44.926Z,52
2018-04-18T06:56:45.204Z,51.51
2018-04-18T06:57:45.290Z,51.61
2018-04-18T06:58:45.253Z,51.9
2018-04-18T06:59:45.277Z,51.9
2018-04-18T07:00:45.293Z,51.9
2018-04-18T07:01:45.075Z,52
2018-04-18T07:02:45.390Z,51.71
2018-04-18T07:03:45.367Z,51.71
2018-04-18T07:04:45.131Z,50.84
2018-04-18T07:05:45.411Z,50.68
2018-04-18T07:06:45.430Z,50.58
2018-04-18T07:07:45.454Z,50.39
2018-04-18T07:08:45.476Z,50.29
2018-04-18T07:09:45.508Z,49.91
2018-04-18T07:10:45.526Z,50.01
2018-04-18T07:11:45.548Z,49.82
2018-04-18T07:12:45.312Z,49.82
2018-04-18T07:13:45.591Z,49.72
2018-04-18T07:14:45.618Z,50.01
2018-04-18T07:15:45.634Z,49.43
2018-04-18T07:16:45.660Z,49.91
2018-04-18T07:17:45.737Z,49.24
2018-04-18T07:18:45.715Z,49.72
2018-04-18T07:19:45.478Z,49.91
2018-04-18T07:20:45.503Z,49.82
2018-04-18T07:21:45.528Z,49.33
2018-04-18T07:22:45.798Z,49.43
2018-04-18T07:23:45.822Z,49.52
2018-04-18T07:24:45.848Z,49.15
2018-04-18T07:25:45.871Z,49.82
2018-04-18T07:26:45.891Z,49.15
2018-04-18T07:27:46.030Z,49.43
2018-04-18T07:28:45.938Z,49.15
2018-04-18T07:29:45.959Z,49.24
2018-04-18T07:30:45.986Z,48.88
2018-04-18T07:31:46.009Z,48.88
2018-04-18T07:32:45.830Z,49.26
2018-04-18T07:33:46.059Z,49.15
2018-04-18T07:34:46.083Z,48.88
2018-04-18T07:35:46.105Z,48.69
2018-04-18T07:36:45.878Z,48.88
2018-04-18T07:37:45.903Z,48.59
2018-04-18T07:38:45.928Z,48.4
2018-04-18T07:39:46.206Z,48.13
2018-04-18T07:40:46.231Z,47.56
2018-04-18T07:41:46.018Z,47.27
2018-04-18T07:42:46.021Z,47.46
2018-04-18T07:43:46.323Z,47.08
2018-04-18T07:44:46.067Z,46.98
2018-04-18T07:45:46.344Z,46.79
2018-04-18T07:46:46.365Z,46.72
2018-04-18T07:47:46.437Z,46.23
2018-04-18T07:48:46.410Z,46.33
2018-04-18T07:49:46.443Z,46.14
2018-04-18T07:50:46.458Z,46.62
2018-04-18T07:51:46.488Z,45.68
2018-04-18T07:52:46.259Z,45.68
2018-04-18T07:53:46.538Z,45.76
2018-04-18T07:54:46.572Z,45.49
2018-04-18T07:55:46.585Z,45.39
2018-04-18T07:56:46.613Z,45.78
2018-04-18T07:57:46.642Z,45.49
2018-04-18T07:58:46.656Z,45.1
2018-04-18T07:59:46.684Z,44.65
2018-04-18T08:00:46.452Z,44.35
2018-04-18T08:01:46.732Z,44.45
2018-04-18T08:02:46.553Z,43.88
2018-04-18T08:03:46.783Z,43.97
2018-04-18T08:04:46.814Z,43.97
2018-04-18T08:05:46.831Z,43.97
2018-04-18T08:06:46.855Z,43.97
2018-04-18T08:07:46.935Z,43.88
2018-04-18T08:08:46.649Z,43.3
2018-04-18T08:09:46.935Z,42.93
2018-04-18T08:10:46.953Z,43.23
2018-04-18T08:11:46.726Z,43.13
2018-04-18T08:12:47.003Z,43.13
2018-04-18T08:13:47.035Z,42.65
2018-04-18T08:14:47.057Z,42.57
2018-04-18T08:15:47.077Z,42.55
2018-04-18T08:16:47.105Z,41.97
2018-04-18T08:17:47.125Z,41.88
2018-04-18T08:18:47.153Z,42.16
2018-04-18T08:19:47.191Z,41.8
2018-04-18T08:20:47.212Z,41.8
2018-04-18T08:21:47.308Z,41.8
2018-04-18T08:22:47.369Z,41.13
2018-04-18T08:23:47.282Z,41.32
2018-04-18T08:24:47.305Z,41.13
2018-04-18T08:25:47.332Z,41.13
2018-04-18T08:26:47.356Z,41.32
2018-04-18T08:27:47.175Z,41.32
2018-04-18T08:28:47.406Z,41.03
2018-04-18T08:29:47.434Z,41.13
2018-04-18T08:30:47.480Z,41.24
2018-04-18T08:31:47.485Z,41.05
2018-04-18T08:32:47.509Z,40.95
2018-04-18T08:33:47.538Z,41.05
2018-04-18T08:34:47.559Z,40.76
2018-04-18T08:35:47.606Z,40.37
2018-04-18T08:36:47.358Z,40.3
2018-04-18T08:37:47.431Z,40.2
2018-04-18T08:38:47.660Z,39.43
2018-04-18T08:39:47.688Z,40.11
2018-04-18T08:40:47.771Z,39.82
2018-04-18T08:41:47.736Z,39.82
2018-04-18T08:42:47.761Z,39.74
2018-04-18T08:43:47.789Z,39.43
2018-04-18T08:44:47.823Z,39.43
2018-04-18T08:45:47.848Z,40.3
2018-04-18T08:46:47.869Z,40.39
2018-04-18T08:47:47.635Z,40.49
2018-04-18T08:48:47.915Z,40.39
2018-04-18T08:49:47.942Z,38.76
2018-04-18T08:50:47.969Z,37.81
2018-04-18T08:51:48.010Z,38.1
2018-04-18T08:52:48.093Z,38.78
2018-04-18T08:53:48.046Z,38.78
2018-04-18T08:54:48.073Z,38.87
2018-04-18T08:55:47.851Z,39.26
2018-04-18T08:56:48.124Z,39.16
2018-04-18T08:57:48.147Z,39.18
2018-04-18T08:58:48.176Z,38.21
2018-04-18T08:59:47.947Z,37.06
2018-04-18T09:00:47.972Z,36.96
2018-04-18T09:01:47.998Z,37.06
2018-04-18T09:02:48.273Z,37.25
2018-04-18T09:03:48.051Z,37.06
2018-04-18T09:04:48.076Z,37.54
2018-04-18T09:05:48.357Z,37.56
2018-04-18T09:06:48.127Z,37.65
2018-04-18T09:07:48.213Z,38.23
2018-04-18T09:08:48.433Z,38.23
2018-04-18T09:09:48.259Z,37.27
2018-04-18T09:10:48.491Z,36.59
2018-04-18T09:11:48.518Z,36.57
2018-04-18T09:12:48.332Z,36.96
2018-04-18T09:13:48.565Z,36.01
2018-04-18T09:14:48.588Z,36.3
2018-04-18T09:15:48.717Z,35.53
2018-04-18T09:16:48.642Z,35.82
2018-04-18T09:17:48.667Z,35.8
2018-04-18T09:18:48.694Z,36.19
2018-04-18T09:19:48.722Z,35.9
2018-04-18T09:20:48.745Z,35.44
2018-04-18T09:21:48.775Z,34.76
2018-04-18T09:22:48.543Z,34.39
2018-04-18T09:23:48.825Z,33.62
2018-04-18T09:24:48.599Z,33.25
2018-04-18T09:25:48.883Z,31.99
2018-04-18T09:26:48.904Z,29.97
2018-04-18T09:27:48.939Z,29.2
2018-04-18T09:28:48.961Z,27.86
2018-04-18T09:29:49.023Z,28.45
2018-04-18T09:30:49.016Z,28.55
2018-04-18T09:31:49.045Z,27.98
2018-04-18T09:32:49.072Z,27.6
2018-04-18T09:33:49.101Z,26.92
2018-04-18T09:34:49.128Z,27.21
2018-04-18T09:35:49.162Z,25.87
2018-04-18T09:36:49.184Z,25.67
2018-04-18T09:37:49.214Z,26.27
2018-04-18T09:38:49.301Z,26.95
2018-04-18T09:39:49.341Z,25.89
2018-04-18T09:40:49.298Z,25.89
2018-04-18T09:41:49.339Z,26.09
2018-04-18T09:42:49.360Z,27.07
2018-04-18T09:43:49.136Z,26.78
2018-04-18T09:44:49.468Z,26.31
2018-04-18T09:45:49.201Z,26.11
2018-04-18T09:46:49.486Z,26.21
2018-04-18T09:47:49.511Z,27.08
2018-04-18T09:48:49.548Z,26.11
2018-04-18T09:49:49.575Z,25.93
2018-04-18T09:50:49.606Z,27
2018-04-18T09:51:49.381Z,26.6
2018-04-18T09:52:49.412Z,26.12
2018-04-18T09:53:49.446Z,26.03
2018-04-18T09:54:49.729Z,26.04
2018-04-18T09:55:49.774Z,25.65
2018-04-18T09:56:49.792Z,25.67
2018-04-18T09:57:49.825Z,25.19
2018-04-18T09:58:49.873Z,24.72
2018-04-18T09:59:50.033Z,23.25
2018-04-18T10:00:49.915Z,23.25
2018-04-18T10:01:49.947Z,23.05
2018-04-18T10:02:49.983Z,23.07
2018-04-18T10:03:50.009Z,23.16
2018-04-18T10:04:50.041Z,23.44
2018-04-18T10:05:50.075Z,22.77
2018-04-18T10:06:50.093Z,23.25
2018-04-18T10:07:50.138Z,22.87
2018-04-18T10:08:50.173Z,23.17
2018-04-18T10:09:49.947Z,23.46
2018-04-18T10:10:50.230Z,23.56
2018-04-18T10:11:50.260Z,23.85
2018-04-18T10:12:50.342Z,23.85
2018-04-18T10:13:50.333Z,23.49
2018-04-18T10:14:50.425Z,23.77
2018-04-18T10:15:50.402Z,22.79
2018-04-18T10:16:50.183Z,22.61
2018-04-18T10:17:50.461Z,21.34
2018-04-18T10:18:50.498Z,21.25
2018-04-18T10:19:50.527Z,20.57
2018-04-18T10:20:50.557Z,20.86
2018-04-18T10:21:50.331Z,20.87
2018-04-18T10:22:50.736Z,21.44
2018-04-18T10:23:50.653Z,21.15
2018-04-18T10:24:50.684Z,20.29
2018-04-18T10:25:50.716Z,20.09
2018-04-18T10:26:50.757Z,19.42
2018-04-18T10:27:50.783Z,19.52
2018-04-18T10:28:50.826Z,18.85
2018-04-18T10:29:50.900Z,19.42
2018-04-18T10:30:50.890Z,19.23
2018-04-18T10:31:50.920Z,18.55
2018-04-18T10:32:50.953Z,18.46
2018-04-18T10:33:50.985Z,18.07
2018-04-18T10:34:51.023Z,17.49
2018-04-18T10:35:51.058Z,17.58
2018-04-18T10:36:50.829Z,17.58
2018-04-18T10:37:51.120Z,17.68
2018-04-18T10:38:51.151Z,16.81
2018-04-18T10:39:51.236Z,16.9
2018-04-18T10:40:51.221Z,16.41
2018-04-18T10:41:50.996Z,17.37
2018-04-18T10:42:51.280Z,17.37
2018-04-18T10:43:51.316Z,16.99
2018-04-18T10:44:51.353Z,16.89
2018-04-18T10:45:51.133Z,16.99
2018-04-18T10:46:51.179Z,17.38
2018-04-18T10:47:51.455Z,16.89
2018-04-18T10:48:51.491Z,17.49
2018-04-18T10:49:51.526Z,17.37
2018-04-18T10:50:51.298Z,17.18
2018-04-18T10:51:51.585Z,16.21
2018-04-18T10:52:51.626Z,16.41
2018-04-18T10:53:51.660Z,16.21
2018-04-18T10:54:51.760Z,16.6
2018-04-18T10:55:51.723Z,16.13
2018-04-18T10:56:51.817Z,14.76
2018-04-18T10:57:51.805Z,15.24
2018-04-18T10:58:51.569Z,15.43
2018-04-18T10:59:51.858Z,15.63
2018-04-18T11:00:51.895Z,14.95
2018-04-18T11:01:51.928Z,14.97
2018-04-18T11:02:51.977Z,14.77
2018-04-18T11:03:51.999Z,14.58
2018-04-18T11:04:52.023Z,14.87
2018-04-18T11:05:52.158Z,14.68
2018-04-18T11:06:52.097Z,14.87
2018-04-18T11:07:52.128Z,14.98
2018-04-18T11:08:52.167Z,15.17
2018-04-18T11:09:52.246Z,14.89
2018-04-18T11:10:52.234Z,14.87
2018-04-18T11:11:52.264Z,14.59
2018-04-18T11:12:52.042Z,12.54
2018-04-18T11:13:52.331Z,12.93
2018-04-18T11:14:52.370Z,13.04
2018-04-18T11:15:52.400Z,12.55
2018-04-18T11:16:52.183Z,12.55
2018-04-18T11:17:52.474Z,12.66
2018-04-18T11:18:52.507Z,12.27
2018-04-18T11:19:52.537Z,11.59
2018-04-18T11:20:52.568Z,11.59
2018-04-18T11:21:52.601Z,11.3
2018-04-18T11:22:52.666Z,11.21
2018-04-18T11:23:52.676Z,11.69
2018-04-18T11:24:52.756Z,11.49
2018-04-18T11:25:52.744Z,10.22
2018-04-18T11:26:52.537Z,9.33
2018-04-18T11:27:52.557Z,9.91
2018-04-18T11:28:52.849Z,9.62
2018-04-18T11:29:52.885Z,9.43
2018-04-18T11:30:52.663Z,9.43
2018-04-18T11:31:52.702Z,8.64
2018-04-18T11:32:52.987Z,8.54
2018-04-18T11:33:53.025Z,8.84
2018-04-18T11:34:53.065Z,8.45
2018-04-18T11:35:53.098Z,9.04
2018-04-18T11:36:53.152Z,9.63
2018-04-18T11:37:53.163Z,9.24
2018-04-18T11:38:52.948Z,8.75
2018-04-18T11:39:53.034Z,8.76
2018-04-18T11:40:53.277Z,8.26
2018-04-18T11:41:53.060Z,8.86
2018-04-18T11:42:53.348Z,8.27
2018-04-18T11:43:53.393Z,7.97
2018-04-18T11:44:53.416Z,8.17
2018-04-18T11:45:53.479Z,7.87
2018-04-18T11:46:53.238Z,7.97
2018-04-18T11:47:53.532Z,8.36
2018-04-18T11:48:53.312Z,8.07
2018-04-18T11:49:53.601Z,7.67
2018-04-18T11:50:53.628Z,7.87
2018-04-18T11:51:53.679Z,7.09
2018-04-18T11:52:53.705Z,7.69
2018-04-18T11:53:53.495Z,7.2
2018-04-18T11:54:53.576Z,6.81
2018-04-18T11:55:53.815Z,6.91
2018-04-18T11:56:53.596Z,6.52
2018-04-18T11:57:53.888Z,6.92
2018-04-18T11:58:53.924Z,6.82
2018-04-18T11:59:53.954Z,7.21
2018-04-18T12:00:53.994Z,7.11
2018-04-18T12:01:54.028Z,6.82
2018-04-18T12:02:54.069Z,7.51
2018-04-18T12:03:54.100Z,6.62
2018-04-18T12:04:54.136Z,7.02
2018-04-18T12:05:54.174Z,7.31
2018-04-18T12:06:53.956Z,7.12
2018-04-18T12:07:54.242Z,6.82
2018-04-18T12:08:54.283Z,6.63
2018-04-18T12:09:54.485Z,6.43
2018-04-18T12:10:54.358Z,6.73
2018-04-18T12:11:54.393Z,6.53
2018-04-18T12:12:54.434Z,5.94
2018-04-18T12:13:54.222Z,6.24
2018-04-18T12:14:54.515Z,5.74
2018-04-18T12:15:54.562Z,5.54
2018-04-18T12:16:54.586Z,5.94
2018-04-18T12:17:54.626Z,5.84
2018-04-18T12:18:54.664Z,5.84
2018-04-18T12:19:54.703Z,5.44
2018-04-18T12:20:54.746Z,5.15
2018-04-18T12:21:54.772Z,5.15
2018-04-18T12:22:54.810Z,5.64
2018-04-18T12:23:54.849Z,6.13
2018-04-18T12:24:54.681Z,5.83
2018-04-18T12:25:54.924Z,5.44
2018-04-18T12:26:54.963Z,5.65
2018-04-18T12:27:55.000Z,5.16
2018-04-18T12:28:55.032Z,5.95
2018-04-18T12:29:55.075Z,5.75
2018-04-18T12:30:55.109Z,5.75
2018-04-18T12:31:55.171Z,5.45
2018-04-18T12:32:54.929Z,5.06
2018-04-18T12:33:55.221Z,5.16
2018-04-18T12:34:55.258Z,5.85
2018-04-18T12:35:55.297Z,5.46
2018-04-18T12:36:55.331Z,5.05
2018-04-18T12:37:55.440Z,5.75
2018-04-18T12:38:55.153Z,5.26
2018-04-18T12:39:55.446Z,4.86
2018-04-18T12:40:55.481Z,5.26
2018-04-18T12:41:55.522Z,6.05
2018-04-18T12:42:55.560Z,5.55
2018-04-18T12:43:55.594Z,5.07
2018-04-18T12:44:55.382Z,5.37
2018-04-18T12:45:55.673Z,4.28
2018-04-18T12:46:55.705Z,4.68
2018-04-18T12:47:55.745Z,4.58
2018-04-18T12:48:55.835Z,4.87
2018-04-18T12:49:55.828Z,4.87
2018-04-18T12:50:55.870Z,4.77
2018-04-18T12:51:55.907Z,4.77
2018-04-18T12:52:55.991Z,4.86
2018-04-18T12:53:55.979Z,4.27
2018-04-18T12:54:55.766Z,3.78
2018-04-18T12:55:56.054Z,4.38
2018-04-18T12:56:56.097Z,4.58
2018-04-18T12:57:55.880Z,4.68
2018-04-18T12:58:55.921Z,4.88